Data for 06/21/2014

Time Sea-Level Adjusted Pressure Absolute Pressure Temperature Relative Humidity Dew Point   
(mb) (inHg) (mb) (inHg) (C) (F) (%) (C) (F)
00:05 1018 30.06 848 25.04 11 51.9 82 8.1 46.7
00:10 1018 30.06 848 25.04 11.1 52 82 8.2 46.8
00:15 1018 30.06 848 25.04 10.8 51.5 83 8.1 46.7
00:20 1018 30.06 848 25.04 10.4 50.8 84 7.9 46.3
00:25 1018 30.06 848 25.04 10.3 50.5 85 7.9 46.2
00:30 1018 30.06 848 25.04 10.2 50.3 83 7.5 45.4
00:35 1018 30.06 848 25.04 10.3 50.5 83 7.5 45.4
00:40 1018 30.06 848 25.04 10.3 50.5 81 7.2 45
00:45 1018 30.06 848 25.04 10.5 50.9 80 7.2 45
00:50 1018 30.06 848 25.04 10.3 50.6 81 7.3 45.1
00:55 1018 30.06 848 25.04 10 49.9 83 7.2 45
01:00 1018 30.06 848 25.04 9.7 49.4 82 6.8 44.3
01:05 1019 30.09 848 25.04 9.6 49.3 82 6.7 44.1
01:10 1018 30.06 848 25.04 9.5 49.1 83 6.7 44.1
01:15 1018 30.06 848 25.04 9.3 48.8 83 6.6 43.9
01:20 1018 30.06 848 25.04 9.1 48.4 83 6.5 43.7
01:25 1018 30.06 848 25.04 9.2 48.5 82 6.4 43.5
01:30 1019 30.09 848 25.04 9.5 49 81 6.4 43.5
01:35 1019 30.09 848 25.04 9.4 49 81 6.4 43.5
01:40 1019 30.09 848 25.04 9.6 49.2 81 6.4 43.5
01:45 1019 30.09 848 25.04 9.8 49.6 80 6.6 43.8
01:50 1019 30.09 848 25.04 10 49.9 80 6.7 44
01:55 1018 30.06 848 25.04 9.9 49.9 79 6.6 43.8
02:00 1018 30.06 848 25.04 9.9 49.8 79 6.4 43.5
02:05 1018 30.06 848 25.04 9.8 49.7 79 6.4 43.5
02:10 1018 30.06 848 25.04 9.6 49.2 80 6.3 43.3
02:15 1018 30.06 848 25.04 9.5 49 81 6.3 43.3
02:20 1018 30.06 848 25.04 9.6 49.3 80 6.2 43.2
02:25 1018 30.06 848 25.04 9.5 49.1 80 6.3 43.3
02:30 1018 30.06 848 25.04 9.4 48.8 80 6.1 43
02:35 1018 30.06 848 25.04 9.3 48.7 79 5.8 42.5
02:40 1018 30.06 848 25.04 9.4 49 79 5.9 42.7
02:45 1018 30.06 848 25.04 9.6 49.2 78 6 42.8
02:50 1018 30.06 848 25.04 9.5 49.1 77 5.7 42.3
02:55 1018 30.06 848 25.04 9.7 49.4 77 5.8 42.5
03:00 1018 30.06 848 25.04 9.4 49 79 6 42.8
03:05 1018 30.06 848 25.04 9.4 48.8 78 5.7 42.2
03:10 1018 30.06 848 25.04 9.9 49.9 76 6 42.7
03:15 1018 30.06 848 25.04 9.9 49.8 77 6 42.8
03:20 1018 30.06 848 25.04 9.8 49.6 77 6 42.8
03:25 1019 30.09 848 25.04 9.4 48.9 79 5.9 42.7
03:30 1019 30.09 848 25.04 9.4 48.9 78 5.7 42.3
03:35 1019 30.09 848 25.04 9.6 49.2 76 5.5 41.9
03:40 1019 30.09 848 25.04 9.9 49.7 75 5.7 42.2
03:45 1019 30.09 848 25.04 9.6 49.3 78 6 42.8
03:50 1019 30.09 848 25.04 9.1 48.3 80 5.8 42.5
03:55 1019 30.09 848 25.04 9 48.3 79 5.6 42
04:00 1019 30.09 848 25.04 9 48.2 80 5.7 42.3
04:05 1019 30.09 848 25.04 8.9 48 78 5.3 41.5
04:10 1019 30.09 848 25.04 8.9 48 79 5.5 41.9
04:15 1019 30.09 848 25.04 8.4 47.1 81 5.3 41.5
04:20 1019 30.09 848 25.04 8.2 46.8 81 5.1 41.2
04:25 1019 30.09 848 25.04 8.1 46.6 81 5.1 41.2
04:30 1019 30.09 848 25.04 8.1 46.6 81 5.1 41.1
04:35 1019 30.09 848 25.04 8.1 46.7 81 5.1 41.1
04:40 1019 30.09 848 25.04 8 46.4 82 5.1 41.2
04:45 1019 30.09 848 25.04 8.2 46.8 80 4.9 40.9
04:50 1019 30.09 848 25.04 8.7 47.6 79 5.2 41.4
04:55 1019 30.09 848 25.04 8.6 47.4 79 5.2 41.3
05:00 1019 30.09 848 25.04 8.6 47.5 80 5.3 41.6
05:05 1019 30.09 848 25.04 8.5 47.3 80 5.3 41.5
05:10 1019 30.09 848 25.04 8.3 47 81 5.3 41.5
05:15 1019 30.09 848 25.04 8.4 47 80 5.1 41.2
05:20 1019 30.09 848 25.04 8.5 47.3 80 5.2 41.4
05:25 1019 30.09 848 25.04 8.6 47.4 79 5.1 41.2
05:30 1019 30.09 848 25.04 8.7 47.7 78 5.2 41.3
05:35 1019 30.09 848 25.04 8.8 47.8 79 5.3 41.5
05:40 1019 30.09 848 25.04 9 48.1 78 5.3 41.5
05:45 1019 30.09 848 25.04 9.1 48.3 78 5.5 41.8
05:50 1019 30.09 848 25.04 9 48.3 78 5.4 41.8
05:55 1019 30.09 848 25.04 9.1 48.3 78 5.4 41.7
06:00 1019 30.09 849 25.07 9.2 48.6 77 5.5 41.8
06:05 1019 30.09 849 25.07 9.4 48.9 77 5.6 42
06:10 1019 30.09 849 25.07 9.5 49.1 77 5.7 42.2
06:15 1019 30.09 849 25.07 10 49.9 75 5.7 42.2
06:20 1019 30.09 849 25.07 10.3 50.5 73 5.7 42.2
06:25 1019 30.09 849 25.07 10.9 51.6 72 6.1 42.9
06:30 1019 30.09 849 25.07 11.1 51.9 72 6.2 43.2
06:35 1019 30.09 849 25.07 11.4 52.4 71 6.2 43.2
06:40 1019 30.09 849 25.07 11.5 52.6 69 6.1 42.9
06:45 1019 30.09 848 25.04 11.8 53.2 70 6.4 43.6
06:50 1019 30.09 848 25.04 12.3 54.1 68 6.5 43.7
06:55 1019 30.09 848 25.04 13 55.3 64 6.4 43.5
07:00 1019 30.09 848 25.04 12.8 55 66 6.7 44
07:05 1019 30.09 848 25.04 12.8 55 65 6.4 43.6
07:10 1019 30.09 848 25.04 13.1 55.5 66 6.9 44.3
07:15 1019 30.09 848 25.04 13.8 56.8 62 6.7 44
07:20 1019 30.09 848 25.04 13.8 56.8 62 6.6 43.8
07:25 1019 30.09 848 25.04 14.1 57.3 62 7 44.6
07:30 1019 30.09 848 25.04 14.2 57.6 62 7.1 44.8
07:35 1019 30.09 848 25.04 14.4 57.9 63 7.5 45.4
07:40 1019 30.09 848 25.04 14.7 58.4 62 7.6 45.7
07:45 1019 30.09 848 25.04 15.1 59.2 62 7.9 46.2
07:50 1019 30.09 848 25.04 15.1 59.3 63 8.2 46.8
07:55 1019 30.09 848 25.04 15.4 59.7 61 8 46.5
08:00 1019 30.09 848 25.04 15.7 60.2 60 8.1 46.5
08:05 1019 30.09 848 25.04 15.5 59.9 61 8.2 46.7
08:10 1019 30.09 848 25.04 15.5 59.9 60 7.9 46.2
08:15 1019 30.09 848 25.04 15.5 60 61 8 46.4
08:20 1019 30.09 848 25.04 15.3 59.6 63 8.4 47
08:25 1019 30.09 849 25.07 15.2 59.3 64 8.4 47.1
08:30 1019 30.09 849 25.07 15.2 59.3 65 8.6 47.5
08:35 1019 30.09 849 25.07 15.7 60.2 62 8.6 47.5
08:40 1019 30.09 849 25.07 16.1 61 59 8.3 47
08:45 1019 30.09 848 25.04 16.1 61 60 8.4 47
08:50 1019 30.09 849 25.07 16.1 60.9 61 8.5 47.3
08:55 1019 30.09 849 25.07 16.1 61 61 8.6 47.4
09:00 1019 30.09 848 25.04 16.3 61.4 59 8.3 46.9
09:05 1019 30.09 848 25.04 16.4 61.5 60 8.6 47.5
09:10 1019 30.09 848 25.04 16.5 61.7 59 8.5 47.3
09:15 1019 30.09 848 25.04 16.9 62.3 54 7.7 45.9
09:20 1019 30.09 848 25.04 17.2 63 52 7.4 45.3
09:25 1019 30.09 848 25.04 17.5 63.5 52 7.6 45.6
09:30 1019 30.09 848 25.04 16.5 61.8 49 6 42.7
09:35 1019 30.09 848 25.04 17.2 63 50 6.9 44.5
09:40 1019 30.09 848 25.04 17.7 63.9 49 6.9 44.5
09:45 1019 30.09 848 25.04 18.4 65 47 6.9 44.3
09:50 1019 30.09 848 25.04 18.7 65.6 46 6.9 44.4
09:55 1019 30.09 848 25.04 18.6 65.5 47 7.3 45.1
10:00 1019 30.09 848 25.04 19 66.2 45 7.1 44.8
10:05 1019 30.09 848 25.04 18.9 66.1 45 6.8 44.2
10:10 1019 30.09 848 25.04 18.7 65.6 46 6.8 44.3
10:15 1019 30.09 848 25.04 18.4 65.1 48 7.2 45
10:20 1019 30.09 848 25.04 18.8 65.9 46 7.1 44.7
10:25 1019 30.09 848 25.04 18.9 66 46 7.2 45
10:30 1019 30.09 848 25.04 19.2 66.5 44 6.9 44.5
10:35 1019 30.09 848 25.04 19.3 66.8 46 7.6 45.6
10:40 1019 30.09 848 25.04 18.2 64.7 48 7.1 44.8
10:45 1019 30.09 848 25.04 18.5 65.2 47 7 44.6
10:50 1019 30.09 848 25.04 18.5 65.3 47 7.2 45
10:55 1019 30.09 848 25.04 18.6 65.4 47 7.1 44.8
11:00 1019 30.09 848 25.04 18.9 66 44 6.6 43.8
11:05 1019 30.09 848 25.04 19.3 66.7 42 6.2 43.2
11:10 1019 30.09 848 25.04 20.2 68.3 39 6 42.7
11:15 1019 30.09 848 25.04 20.7 69.2 38 6.2 43.1
11:20 1019 30.09 848 25.04 20.3 68.5 41 6.8 44.2
11:25 1019 30.09 848 25.04 20.7 69.2 39 6.5 43.7
11:30 1019 30.09 848 25.04 21 69.7 39 6.6 43.9
11:35 1018 30.06 848 25.04 21.2 70.1 39 6.7 44.1
11:40 1018 30.06 848 25.04 20.8 69.4 41 7.2 44.9
11:45 1018 30.06 848 25.04 20.4 68.7 39 6.2 43.2
11:50 1018 30.06 848 25.04 19.6 67.3 42 6.5 43.8
11:55 1018 30.06 847 25.01 19.9 67.8 41 6.3 43.3
12:00 1018 30.06 847 25.01 20.5 68.9 38 5.9 42.6
12:05 1018 30.06 847 25.01 21.2 70.1 36 5.9 42.6
12:10 1018 30.06 847 25.01 21.3 70.3 35 5.5 41.8
12:15 1018 30.06 847 25.01 22 71.6 37 6.7 44
12:20 1018 30.06 847 25.01 21.4 70.4 37 6.4 43.5
12:25 1018 30.06 847 25.01 21.6 70.8 36 6.1 43
12:30 1018 30.06 847 25.01 21.9 71.5 36 6.2 43.2
12:35 1018 30.06 847 25.01 22.7 72.9 33 6 42.7
12:40 1018 30.06 847 25.01 22.6 72.6 34 6.1 43.1
12:45 1018 30.06 847 25.01 22.3 72.2 35 6.5 43.7
12:50 1018 30.06 847 25.01 22.1 71.8 38 7.2 44.9
12:55 1018 30.06 847 25.01 21.3 70.3 36 5.8 42.4
13:00 1018 30.06 847 25.01 22.1 71.7 36 6.3 43.4
13:05 1018 30.06 847 25.01 21.7 71.1 36 6.3 43.4
13:10 1018 30.06 847 25.01 21.6 70.9 37 6.5 43.8
13:15 1018 30.06 847 25.01 21.9 71.5 39 7.4 45.3
13:20 1018 30.06 847 25.01 21.4 70.5 39 7 44.6
13:25 1018 30.06 847 25.01 21.7 71.1 37 6.6 43.9
13:30 1018 30.06 847 25.01 22 71.5 36 6.3 43.3
13:35 1018 30.06 847 25.01 21.9 71.4 38 7 44.5
13:40 1017 30.03 847 25.01 22 71.6 37 6.9 44.4
13:45 1017 30.03 847 25.01 21.5 70.6 38 6.9 44.4
13:50 1017 30.03 847 25.01 21.6 70.8 37 6.5 43.8
13:55 1017 30.03 847 25.01 21.8 71.2 35 6 42.8
14:00 1017 30.03 846 24.98 22.5 72.5 33 5.8 42.5
14:05 1017 30.03 846 24.98 22.5 72.5 33 5.8 42.5
14:10 1017 30.03 846 24.98 22.5 72.5 36 6.8 44.3
14:15 1017 30.03 846 24.98 22.7 72.9 33 6 42.7
14:20 1017 30.03 846 24.98 22.9 73.1 33 6.1 43
14:25 1017 30.03 846 24.98 23.2 73.8 32 6 42.8
14:30 1017 30.03 846 24.98 22.8 73.1 31 5.1 41.1
14:35 1017 30.03 846 24.98 22.8 73.1 31 5.1 41.2
14:40 1017 30.03 846 24.98 22.8 73.1 31 5 41
14:45 1017 30.03 846 24.98 22.9 73.2 31 5.1 41.1
14:50 1017 30.03 846 24.98 23 73.3 31 5 41
14:55 1017 30.03 846 24.98 23.2 73.7 30 4.8 40.7
15:00 1017 30.03 846 24.98 23.5 74.2 30 5 41
15:05 1017 30.03 846 24.98 23.7 74.7 28 4.2 39.5
15:10 1017 30.03 846 24.98 24 75.1 27 4 39.2
15:15 1017 30.03 846 24.98 24 75.1 27 4 39.2
15:20 1017 30.03 846 24.98 23.5 74.3 27 3.7 38.7
15:25 1017 30.03 846 24.98 23.6 74.5 26 3 37.4
15:30 1017 30.03 846 24.98 23.5 74.3 26 2.9 37.3
15:35 1017 30.03 846 24.98 23.2 73.8 25 2.4 36.3
15:40 1017 30.03 846 24.98 23.3 73.9 26 2.9 37.1
15:45 1017 30.03 846 24.98 23.1 73.5 27 3.5 38.3
15:50 1017 30.03 846 24.98 22.8 73.1 27 3.3 37.9
15:55 1017 30.03 846 24.98 23.2 73.7 27 3.2 37.7
16:00 1017 30.03 846 24.98 23.5 74.3 27 3.8 38.8
16:05 1017 30.03 846 24.98 23.3 73.9 29 4.7 40.4
16:10 1017 30.03 846 24.98 23.4 74.1 29 4.4 39.9
16:15 1017 30.03 846 24.98 22.8 73.1 30 4.4 40
16:20 1017 30.03 846 24.98 22.8 73 29 4.2 39.5
16:25 1017 30.03 846 24.98 22.4 72.4 31 4.5 40.1
16:30 1017 30.03 846 24.98 22.5 72.5 30 4.5 40.1
16:35 1017 30.03 846 24.98 22.6 72.6 31 5 41
16:40 1017 30.03 846 24.98 22.3 72.1 31 4.3 39.8
16:45 1017 30.03 846 24.98 22.3 72.1 30 4.2 39.6
16:50 1017 30.03 846 24.98 21.5 70.7 32 4.2 39.6
16:55 1017 30.03 846 24.98 21.4 70.6 31 4 39.2
17:00 1017 30.03 846 24.98 21.8 71.3 30 3.6 38.5
17:05 1017 30.03 846 24.98 22.3 72.1 29 3.4 38.2
17:10 1017 30.03 846 24.98 22.2 71.9 31 4.4 40
17:15 1017 30.03 846 24.98 22.3 72.1 31 4.5 40.1
17:20 1017 30.03 846 24.98 22 71.5 36 6.4 43.6
17:25 1017 30.03 846 24.98 20.9 69.6 38 6.3 43.3
17:30 1017 30.03 846 24.98 20.6 69.1 39 6.4 43.5
17:35 1017 30.03 846 24.98 20.7 69.2 39 6.3 43.3
17:40 1017 30.03 846 24.98 20.7 69.3 36 5.2 41.4
17:45 1017 30.03 846 24.98 20.8 69.4 35 5.1 41.1
17:50 1017 30.03 846 24.98 20.6 69.2 40 6.9 44.4
17:55 1017 30.03 846 24.98 21 69.7 37 6 42.9
18:00 1017 30.03 846 24.98 20.6 69.1 39 6.3 43.4
18:05 1017 30.03 846 24.98 20.6 69.1 39 6.3 43.3
18:10 1017 30.03 846 24.98 20.5 68.9 39 6.4 43.4
18:15 1017 30.03 847 25.01 20.4 68.7 37 5.3 41.5
18:20 1017 30.03 847 25.01 20 68 38 5.2 41.4
18:25 1017 30.03 847 25.01 19.5 67.1 42 6.5 43.6
18:30 1018 30.06 847 25.01 18.8 65.8 43 6.2 43.1
18:35 1018 30.06 847 25.01 18.2 64.8 45 6.3 43.4
18:40 1018 30.06 847 25.01 17.7 63.9 46 6 42.9
18:45 1018 30.06 847 25.01 17.5 63.5 48 6.5 43.6
18:50 1018 30.06 847 25.01 17.2 62.9 49 6.4 43.6
18:55 1018 30.06 847 25.01 17 62.5 48 6.1 42.9
19:00 1018 30.06 847 25.01 16.9 62.4 47 5.6 42.1
19:05 1018 30.06 847 25.01 16.7 62.1 48 5.7 42.2
19:10 1018 30.06 847 25.01 16.7 62 48 5.8 42.4
19:15 1018 30.06 847 25.01 16.7 62 49 6 42.9
19:20 1018 30.06 847 25.01 16.6 62 50 6.2 43.2
19:25 1018 30.06 847 25.01 16.6 62 49 6 42.9
19:30 1018 30.06 847 25.01 16.4 61.6 50 6 42.9
19:35 1018 30.06 847 25.01 16.4 61.6 50 6 42.9
19:40 1018 30.06 847 25.01 16.4 61.6 50 6.2 43.2
19:45 1018 30.06 847 25.01 16.3 61.4 50 6.1 43
19:50 1018 30.06 847 25.01 16.2 61.1 51 6.1 43
19:55 1018 30.06 847 25.01 16.2 61.2 52 6.4 43.5
20:00 1018 30.06 847 25.01 16.1 61.1 51 6.2 43.2
20:05 1018 30.06 847 25.01 15.9 60.7 50 5.5 41.9
20:10 1018 30.06 847 25.01 15.9 60.5 49 5.3 41.6
20:15 1018 30.06 847 25.01 15.8 60.4 50 5.3 41.6
20:20 1018 30.06 847 25.01 15.7 60.3 50 5.4 41.7
20:25 1018 30.06 847 25.01 15.7 60.2 50 5.4 41.7
20:30 1018 30.06 847 25.01 15.7 60.2 50 5.4 41.8
20:35 1018 30.06 847 25.01 15.6 60.1 51 5.5 41.8
20:40 1018 30.06 847 25.01 15.6 60 51 5.5 41.9
20:45 1018 30.06 847 25.01 15.5 59.9 51 5.4 41.7
20:50 1018 30.06 847 25.01 15.5 59.9 50 5.2 41.3
20:55 1018 30.06 848 25.04 15.4 59.8 50 5.3 41.5
21:00 1019 30.09 848 25.04 15.3 59.6 51 5.4 41.7
21:05 1019 30.09 848 25.04 15.3 59.5 50 5.1 41.3
21:10 1019 30.09 848 25.04 15.2 59.4 52 5.5 41.9
21:15 1019 30.09 848 25.04 15.1 59.1 52 5.5 41.9
21:20 1019 30.09 848 25.04 15 59 51 5.1 41.2
21:25 1019 30.09 848 25.04 15.1 59.1 51 5 40.9
21:30 1019 30.09 848 25.04 15 59.1 52 5.3 41.5
21:35 1019 30.09 848 25.04 14.9 58.8 52 5.2 41.3
21:40 1019 30.09 848 25.04 14.9 58.8 52 5.1 41.1
21:45 1019 30.09 848 25.04 15 58.9 52 5.2 41.3
21:50 1019 30.09 848 25.04 14.9 58.9 52 5.3 41.5
21:55 1019 30.09 848 25.04 14.9 58.8 52 5.3 41.5
22:00 1019 30.09 848 25.04 14.9 58.7 52 5.3 41.6
22:05 1019 30.09 848 25.04 14.9 58.8 52 5.3 41.5
22:10 1019 30.09 848 25.04 14.9 58.9 52 5.2 41.4
22:15 1019 30.09 848 25.04 15 59 51 5.1 41.1
22:20 1019 30.09 848 25.04 15.2 59.3 50 5 41
22:25 1019 30.09 848 25.04 15.2 59.3 50 4.9 40.8
22:30 1019 30.09 848 25.04 15.2 59.3 50 5 41
22:35 1019 30.09 848 25.04 15.2 59.3 50 5 41
22:40 1019 30.09 848 25.04 15.1 59.2 50 4.8 40.7
22:45 1019 30.09 848 25.04 15.1 59.3 50 5 41
22:50 1019 30.09 848 25.04 15.1 59.3 50 5 41
22:55 1019 30.09 848 25.04 15.2 59.3 50 4.9 40.9
23:00 1019 30.09 848 25.04 15.2 59.3 50 5 41
23:05 1019 30.09 848 25.04 15.2 59.3 50 4.8 40.7
23:10 1019 30.09 848 25.04 15.3 59.5 49 4.8 40.7
23:15 1019 30.09 848 25.04 15.3 59.5 50 4.9 40.9
23:20 1019 30.09 848 25.04 15.2 59.4 50 5 40.9
23:25 1019 30.09 849 25.07 15.2 59.3 50 4.8 40.6
23:30 1019 30.09 849 25.07 15.1 59.3 50 4.8 40.6
23:35 1019 30.09 849 25.07 15.1 59.2 50 4.8 40.7
23:40 1019 30.09 849 25.07 15.1 59.2 50 4.8 40.6
23:45 1019 30.09 848 25.04 15.1 59.1 50 4.9 40.8
23:50 1019 30.09 849 25.07 15 59 51 4.9 40.8
23:55 1019 30.09 848 25.04 14.9 58.9 50 4.8 40.6
24:00 1019 30.09 848 25.04 14.9 58.8 50 4.8 40.6